Time;durP1;ratioP1;P1;durP2;ratioP2;P2;SDS_P1;SDS_P2;PMS_P1;PMS_P2;Temp;Humidity;BMP_temperature;BMP_pressure;BME280_temperature;BME280_humidity;BME280_pressure;Samples;Min_cycle;Max_cycle;Signal;HPM_P1;HPM_P2
2023/10/05 00:00:36;;;;;;;3.77;2.08;;;15.20;99.90;;;;;;1904931;75;21202;-81
2023/10/05 00:03:20;;;;;;;;;;;15.10;99.90;;;;;;1910699;75;21526;-82
2023/10/05 00:06:14;;;;;;;3.58;1.67;;;15.00;99.90;;;;;;1907794;75;20184;-81
2023/10/05 00:09:11;;;;;;;5.10;1.90;;;15.00;99.90;;;;;;1907644;75;21092;-82
2023/10/05 00:12:02;;;;;;;3.55;2.00;;;15.00;99.90;;;;;;1907634;75;21099;-82
2023/10/05 00:15:09;;;;;;;5.67;1.80;;;15.10;99.90;;;;;;1907599;75;21116;-82
2023/10/05 00:17:56;;;;;;;4.08;2.15;;;15.20;99.90;;;;;;1907676;75;21113;-81
2023/10/05 00:20:48;;;;;;;2.47;1.70;;;15.20;99.90;;;;;;1907758;75;21076;-81
2023/10/05 00:23:41;;;;;;;3.12;2.00;;;15.30;99.90;;;;;;1906233;75;21099;-82
2023/10/05 00:26:33;;;;;;;6.08;2.05;;;15.30;99.90;;;;;;1905776;75;21091;-82
2023/10/05 00:29:27;;;;;;;3.25;1.72;;;15.30;99.90;;;;;;1905351;75;21177;-81
2023/10/05 00:32:34;;;;;;;3.65;1.65;;;15.30;99.90;;;;;;1907799;75;21547;-81
2023/10/05 00:35:16;;;;;;;3.35;2.22;;;15.30;99.90;;;;;;1909055;74;21098;-81
2023/10/05 00:38:12;;;;;;;3.25;1.90;;;15.30;99.90;;;;;;1903857;75;21586;-81
2023/10/05 00:41:08;;;;;;;2.50;1.80;;;15.30;99.90;;;;;;1905899;75;22002;-82
2023/10/05 00:43:56;;;;;;;3.90;1.75;;;15.40;99.90;;;;;;1906745;75;21144;-82
2023/10/05 00:46:49;;;;;;;4.20;1.90;;;15.40;99.90;;;;;;1905068;75;21558;-81
2023/10/05 00:49:52;;;;;;;2.85;1.80;;;15.40;99.90;;;;;;1908378;75;21120;-81
2023/10/05 00:52:44;;;;;;;3.45;2.00;;;15.40;99.90;;;;;;1905323;74;21119;-81
2023/10/05 00:55:39;;;;;;;3.55;2.00;;;15.40;99.90;;;;;;1907429;75;21048;-81
2023/10/05 00:58:38;;;;;;;3.67;1.90;;;15.40;99.90;;;;;;1906114;75;21363;-81
2023/10/05 01:01:24;;;;;;;3.65;2.02;;;15.40;99.90;;;;;;1906463;75;21103;-81
2023/10/05 01:04:23;;;;;;;3.45;1.98;;;15.40;99.90;;;;;;1905056;75;21143;-81
2023/10/05 01:07:18;;;;;;;3.77;2.03;;;15.40;99.90;;;;;;1878451;75;21105;-81
2023/10/05 01:10:29;;;;;;;3.42;1.90;;;15.40;99.90;;;;;;1877526;76;22339;-82
2023/10/05 01:13:29;;;;;;;2.45;1.65;;;15.40;99.90;;;;;;1877858;76;21117;-81
2023/10/05 01:16:21;;;;;;;2.90;1.92;;;15.40;99.90;;;;;;1877512;76;21116;-81
2023/10/05 01:19:13;;;;;;;3.22;1.42;;;15.30;99.90;;;;;;1877506;76;21184;-81
2023/10/05 01:22:11;;;;;;;3.80;2.00;;;15.30;99.90;;;;;;1877231;76;21105;-82
2023/10/05 01:24:59;;;;;;;3.12;1.87;;;15.30;99.90;;;;;;1877799;76;21137;-81
2023/10/05 01:27:52;;;;;;;4.80;1.77;;;15.30;99.90;;;;;;1877732;76;21545;-81
2023/10/05 01:30:43;;;;;;;2.40;1.47;;;15.30;99.90;;;;;;1877666;76;21109;-81
2023/10/05 01:33:34;;;;;;;2.47;1.77;;;15.30;99.90;;;;;;1876898;76;21155;-81
2023/10/05 01:36:27;;;;;;;3.12;1.82;;;15.30;99.90;;;;;;1877586;76;21505;-81
2023/10/05 01:39:20;;;;;;;4.45;1.80;;;15.20;99.90;;;;;;1877310;76;21105;-81
2023/10/05 01:42:13;;;;;;;4.30;2.17;;;15.30;99.90;;;;;;1877303;76;21080;-83
2023/10/05 01:45:06;;;;;;;3.08;1.90;;;15.30;99.90;;;;;;1877648;76;21620;-82
2023/10/05 01:48:01;;;;;;;2.65;1.60;;;15.30;99.90;;;;;;1877487;76;21080;-81
2023/10/05 01:50:51;;;;;;;2.75;1.60;;;15.30;99.90;;;;;;1877508;76;21105;-81
2023/10/05 01:53:45;;;;;;;3.27;1.77;;;15.30;99.90;;;;;;1869450;76;21137;-81
2023/10/05 01:56:37;;;;;;;4.20;2.25;;;15.30;99.90;;;;;;1868089;77;21619;-81
2023/10/05 01:59:28;;;;;;;4.58;1.87;;;15.30;99.90;;;;;;1868332;77;21113;-82
2023/10/05 02:02:21;;;;;;;2.35;1.70;;;15.30;99.90;;;;;;1867954;77;21113;-82
2023/10/05 02:05:14;;;;;;;2.85;1.47;;;15.30;99.90;;;;;;1868043;77;21172;-81
2023/10/05 02:08:06;;;;;;;2.65;1.67;;;15.20;99.90;;;;;;1868097;77;21096;-81
2023/10/05 02:11:01;;;;;;;4.08;1.60;;;15.20;99.90;;;;;;1867730;77;21073;-81
2023/10/05 02:13:53;;;;;;;2.50;1.72;;;15.20;99.90;;;;;;1867782;77;21113;-81
2023/10/05 02:16:48;;;;;;;4.08;1.70;;;15.20;99.90;;;;;;1867827;77;21251;-81
2023/10/05 02:19:38;;;;;;;3.67;1.80;;;15.20;99.90;;;;;;1868155;77;21175;-81
2023/10/05 02:22:29;;;;;;;4.62;1.82;;;15.00;99.90;;;;;;1867545;77;21146;-81
2023/10/05 02:25:24;;;;;;;2.90;1.80;;;15.00;99.90;;;;;;1867343;77;21109;-81
2023/10/05 02:28:25;;;;;;;3.08;1.87;;;14.90;99.90;;;;;;1867590;77;21098;-81
2023/10/05 02:31:11;;;;;;;2.40;1.70;;;14.90;99.90;;;;;;1868014;77;21117;-82
2023/10/05 02:34:05;;;;;;;5.58;1.87;;;14.90;99.90;;;;;;1867964;77;21134;-81
2023/10/05 02:36:56;;;;;;;3.02;1.87;;;14.90;99.90;;;;;;1867981;77;21078;-81
2023/10/05 02:39:49;;;;;;;5.45;2.25;;;14.90;99.90;;;;;;1867442;77;21679;-81
2023/10/05 02:42:42;;;;;;;3.62;2.10;;;14.90;99.90;;;;;;1867490;77;21117;-82
2023/10/05 02:45:33;;;;;;;3.12;1.82;;;14.90;99.90;;;;;;1867583;77;21097;-82
2023/10/05 02:48:24;;;;;;;2.98;1.80;;;14.90;99.90;;;;;;1867856;77;21660;-82
2023/10/05 02:51:18;;;;;;;3.37;1.70;;;14.90;99.90;;;;;;1868062;77;21101;-82
2023/10/05 02:54:10;;;;;;;3.67;2.08;;;14.90;99.90;;;;;;1868420;76;21407;-81
2023/10/05 02:57:03;;;;;;;3.10;1.87;;;14.80;99.90;;;;;;1868240;77;21109;-81
2023/10/05 02:59:54;;;;;;;2.62;1.92;;;14.90;99.90;;;;;;1868247;77;21191;-81
2023/10/05 03:02:50;;;;;;;3.72;2.00;;;14.80;99.90;;;;;;1868024;77;21141;-81
2023/10/05 03:05:42;;;;;;;5.20;1.92;;;14.80;99.90;;;;;;1868296;77;21105;-81
2023/10/05 03:08:36;;;;;;;3.58;2.15;;;14.80;99.90;;;;;;1867924;77;21159;-81
2023/10/05 03:11:26;;;;;;;2.42;1.60;;;14.70;99.90;;;;;;1859672;77;21526;-81
2023/10/05 03:14:18;;;;;;;2.55;1.80;;;14.70;99.90;;;;;;1859662;77;21082;-81
2023/10/05 03:17:13;;;;;;;3.55;1.65;;;14.70;99.90;;;;;;1859719;77;21113;-81
2023/10/05 03:20:08;;;;;;;3.52;2.02;;;14.70;99.90;;;;;;1859513;77;21558;-81
2023/10/05 03:22:59;;;;;;;3.40;2.00;;;14.70;99.90;;;;;;1859629;77;21131;-82
2023/10/05 03:25:55;;;;;;;3.05;1.90;;;14.70;99.90;;;;;;1859761;77;21125;-82
2023/10/05 03:28:46;;;;;;;3.15;2.02;;;14.70;99.90;;;;;;1859641;77;21121;-81
2023/10/05 03:31:43;;;;;;;3.22;2.12;;;14.70;99.90;;;;;;1859812;77;21173;-82
2023/10/05 03:34:32;;;;;;;4.20;1.70;;;14.70;99.90;;;;;;1859767;77;21106;-82
2023/10/05 03:37:24;;;;;;;5.67;1.82;;;14.80;99.90;;;;;;1859639;77;21199;-81
2023/10/05 03:40:22;;;;;;;3.95;2.02;;;14.70;99.90;;;;;;1859534;77;21623;-82
2023/10/05 03:43:13;;;;;;;5.50;1.80;;;14.80;99.90;;;;;;1859564;77;21117;-82
2023/10/05 03:46:08;;;;;;;3.33;1.98;;;14.80;99.90;;;;;;1859830;77;21220;-81
2023/10/05 03:49:02;;;;;;;4.12;2.00;;;14.80;99.90;;;;;;1859895;77;21195;-82
2023/10/05 03:51:55;;;;;;;2.35;1.77;;;14.70;99.90;;;;;;1859761;77;21105;-82
2023/10/05 03:54:47;;;;;;;2.95;2.10;;;14.60;99.90;;;;;;1864343;76;21148;-81
2023/10/05 03:57:41;;;;;;;5.80;2.50;;;14.60;99.90;;;;;;1867972;77;21165;-82
2023/10/05 04:00:35;;;;;;;5.62;1.95;;;14.50;99.90;;;;;;1868251;77;21097;-82
2023/10/05 04:03:27;;;;;;;3.25;2.02;;;14.50;99.90;;;;;;1867989;77;21116;-82
2023/10/05 04:06:20;;;;;;;3.72;2.62;;;14.50;99.90;;;;;;1868125;77;21105;-81
2023/10/05 04:09:15;;;;;;;5.58;2.95;;;14.50;99.90;;;;;;1868013;77;21200;-82
2023/10/05 04:12:10;;;;;;;5.15;3.45;;;14.50;99.90;;;;;;1868129;76;21167;-81
2023/10/05 04:15:00;;;;;;;7.85;3.70;;;14.50;99.90;;;;;;1868209;77;21101;-81
2023/10/05 04:17:53;;;;;;;4.12;2.70;;;14.60;99.90;;;;;;1868076;77;21154;-82
2023/10/05 04:20:46;;;;;;;3.80;2.50;;;14.60;99.90;;;;;;1868071;77;21117;-82
2023/10/05 04:23:40;;;;;;;4.58;2.72;;;14.70;99.90;;;;;;1867997;77;21175;-82
2023/10/05 04:26:37;;;;;;;4.87;2.67;;;14.60;99.90;;;;;;1868212;77;21524;-82
2023/10/05 04:29:26;;;;;;;3.95;2.45;;;14.50;99.90;;;;;;1868383;77;21126;-82
2023/10/05 04:32:18;;;;;;;5.15;2.47;;;14.50;99.90;;;;;;1868306;77;21110;-83
2023/10/05 04:35:16;;;;;;;4.15;2.30;;;14.50;99.90;;;;;;1868131;77;21535;-82
2023/10/05 04:38:05;;;;;;;5.75;2.70;;;14.60;99.90;;;;;;1868107;77;21116;-82
2023/10/05 04:40:59;;;;;;;5.72;2.77;;;14.60;99.90;;;;;;1868049;77;21107;-82
2023/10/05 04:46:31;;;;;;;4.85;2.25;;;14.50;99.90;;;;;;1957494;72;22211;-82
2023/10/05 04:49:24;;;;;;;3.62;2.33;;;14.40;99.90;;;;;;1917017;75;21188;-83
2023/10/05 04:52:22;;;;;;;5.22;4.08;;;14.30;99.90;;;;;;1916638;75;21692;-82
2023/10/05 04:55:18;;;;;;;5.08;2.77;;;14.20;99.90;;;;;;1916886;75;21095;-82
2023/10/05 04:58:21;;;;;;;4.65;2.40;;;14.20;99.90;;;;;;1916725;75;21156;-81
2023/10/05 05:01:28;;;;;;;5.20;3.00;;;14.20;99.90;;;;;;1916777;75;21058;-82
2023/10/05 05:04:27;;;;;;;4.15;2.30;;;14.20;99.90;;;;;;1916824;75;21156;-82
2023/10/05 05:07:07;;;;;;;4.42;2.77;;;14.20;99.90;;;;;;1916906;75;21090;-82
2023/10/05 05:09:59;;;;;;;4.45;2.30;;;14.10;99.90;;;;;;1916997;75;21102;-82
2023/10/05 05:12:53;;;;;;;4.95;2.50;;;14.10;99.90;;;;;;1917155;75;21093;-82
2023/10/05 05:15:46;;;;;;;4.72;2.47;;;14.10;99.90;;;;;;1917195;75;21164;-81
2023/10/05 05:18:41;;;;;;;4.95;2.33;;;14.10;99.90;;;;;;1917143;75;21165;-81
2023/10/05 05:21:35;;;;;;;3.65;2.35;;;14.20;99.90;;;;;;1917207;75;21124;-82
2023/10/05 05:24:28;;;;;;;5.10;2.60;;;14.10;99.90;;;;;;1917167;75;21055;-82
2023/10/05 05:27:24;;;;;;;5.55;2.52;;;14.10;99.90;;;;;;1916920;75;21111;-81
2023/10/05 05:30:24;;;;;;;3.40;2.25;;;14.10;99.90;;;;;;1917115;75;21115;-83
2023/10/05 05:33:13;;;;;;;4.42;2.67;;;14.10;99.90;;;;;;1917182;75;21128;-83
2023/10/05 05:36:11;;;;;;;4.75;2.77;;;14.10;99.90;;;;;;1916526;75;21249;-82
2023/10/05 05:39:04;;;;;;;4.03;2.83;;;14.10;99.90;;;;;;1916625;75;21087;-82
2023/10/05 05:41:59;;;;;;;6.08;2.50;;;14.10;99.90;;;;;;1917100;75;21083;-82
2023/10/05 05:44:52;;;;;;;6.40;2.80;;;14.10;99.90;;;;;;1916950;75;21185;-83
2023/10/05 05:47:45;;;;;;;3.65;2.37;;;14.20;99.90;;;;;;1917209;75;21472;-82
2023/10/05 05:50:39;;;;;;;4.12;3.10;;;14.10;99.90;;;;;;1916796;75;21047;-83
2023/10/05 05:53:31;;;;;;;3.70;2.70;;;14.10;99.90;;;;;;1916606;75;21127;-82
2023/10/05 05:56:28;;;;;;;4.05;2.30;;;14.10;99.90;;;;;;1916504;75;21109;-82
2023/10/05 05:59:26;;;;;;;4.95;3.17;;;14.10;99.90;;;;;;1916210;75;21201;-82
2023/10/05 06:02:17;;;;;;;5.75;2.85;;;14.10;99.90;;;;;;1949236;73;21095;-81
2023/10/05 06:05:12;;;;;;;3.83;2.58;;;14.10;99.90;;;;;;1947048;73;21094;-82
2023/10/05 06:08:08;;;;;;;5.28;3.05;;;14.20;99.90;;;;;;1935112;74;21147;-83
2023/10/05 06:10:58;;;;;;;6.67;3.02;;;14.30;99.90;;;;;;1935496;74;21110;-83
2023/10/05 06:13:50;;;;;;;6.22;2.92;;;14.30;99.90;;;;;;1935362;74;21097;-83
2023/10/05 06:16:41;;;;;;;5.15;2.67;;;14.40;99.90;;;;;;1934990;74;21228;-82
2023/10/05 06:19:33;;;;;;;5.10;2.80;;;14.40;99.90;;;;;;1935327;74;21093;-82
2023/10/05 06:22:25;;;;;;;3.58;2.50;;;14.40;99.90;;;;;;1935782;74;21087;-81
2023/10/05 06:25:18;;;;;;;5.58;2.98;;;14.40;99.90;;;;;;1935616;74;21117;-83
2023/10/05 06:28:10;;;;;;;4.45;2.87;;;14.50;99.90;;;;;;1935323;74;21160;-82
2023/10/05 06:31:02;;;;;;;5.62;2.85;;;14.50;99.90;;;;;;1935520;74;21123;-82
2023/10/05 06:33:53;;;;;;;5.65;2.70;;;14.60;99.90;;;;;;1935726;74;21047;-82
2023/10/05 06:36:46;;;;;;;6.10;3.00;;;14.70;99.90;;;;;;1935286;74;21102;-82
2023/10/05 06:39:37;;;;;;;6.85;3.37;;;14.70;99.90;;;;;;1935657;74;21120;-82
2023/10/05 06:42:28;;;;;;;5.85;2.87;;;14.80;99.90;;;;;;1935665;74;21180;-82
2023/10/05 06:45:20;;;;;;;8.10;2.80;;;14.90;99.90;;;;;;1935790;74;21102;-81
2023/10/05 06:48:11;;;;;;;6.33;3.52;;;14.90;99.90;;;;;;1935656;74;21110;-81
2023/10/05 06:51:03;;;;;;;4.72;2.60;;;15.00;99.90;;;;;;1935107;74;21051;-82
2023/10/05 06:53:55;;;;;;;3.95;2.58;;;15.00;99.90;;;;;;1935301;74;21616;-82
2023/10/05 06:56:49;;;;;;;6.25;3.05;;;15.10;99.90;;;;;;1935157;74;21089;-82
2023/10/05 06:59:42;;;;;;;7.45;3.15;;;15.10;99.90;;;;;;1935387;74;21102;-82
2023/10/05 07:02:32;;;;;;;9.38;3.10;;;15.20;99.90;;;;;;1935284;73;21129;-82
2023/10/05 07:05:24;;;;;;;10.40;3.08;;;15.20;99.90;;;;;;1940595;73;21163;-82
2023/10/05 07:08:15;;;;;;;4.17;2.87;;;15.30;99.90;;;;;;1958484;73;21186;-82
2023/10/05 07:11:07;;;;;;;7.28;3.20;;;15.30;99.90;;;;;;1958631;73;21602;-82
2023/10/05 07:13:59;;;;;;;5.78;2.75;;;15.30;99.90;;;;;;1958604;73;21082;-82
2023/10/05 07:16:51;;;;;;;5.70;2.83;;;15.40;99.90;;;;;;1958712;73;21097;-82
2023/10/05 07:19:48;;;;;;;5.92;3.17;;;15.50;99.90;;;;;;1958779;73;21107;-82
2023/10/05 07:22:35;;;;;;;6.78;3.10;;;15.50;99.90;;;;;;1958794;73;21154;-82
2023/10/05 07:25:27;;;;;;;5.45;2.90;;;15.60;99.90;;;;;;1958928;73;21563;-82
2023/10/05 07:28:19;;;;;;;6.83;3.17;;;15.50;99.90;;;;;;1958924;73;21103;-82
2023/10/05 07:31:10;;;;;;;5.30;3.20;;;15.60;99.90;;;;;;1958666;73;21167;-82
2023/10/05 07:34:04;;;;;;;5.37;3.40;;;15.70;99.90;;;;;;1958675;73;21120;-83
2023/10/05 07:36:57;;;;;;;9.25;4.15;;;15.80;99.90;;;;;;1958867;73;21351;-82
2023/10/05 07:39:50;;;;;;;7.42;2.87;;;15.90;99.90;;;;;;1958982;73;21037;-82
2023/10/05 07:42:42;;;;;;;5.97;3.00;;;15.90;99.90;;;;;;1958906;73;21146;-82
2023/10/05 07:45:37;;;;;;;8.68;3.02;;;16.00;99.90;;;;;;1958561;73;21117;-82
2023/10/05 07:48:29;;;;;;;5.33;2.70;;;16.00;99.90;;;;;;1958480;73;21080;-82
2023/10/05 07:51:20;;;;;;;8.13;3.10;;;16.10;99.90;;;;;;1958580;73;21157;-81
2023/10/05 07:54:12;;;;;;;6.75;3.25;;;16.10;99.90;;;;;;1958468;73;21576;-81
2023/10/05 07:57:04;;;;;;;5.35;3.30;;;16.20;99.90;;;;;;1958508;73;21535;-81
2023/10/05 07:59:55;;;;;;;4.62;3.17;;;16.20;99.90;;;;;;1958385;73;21141;-81
2023/10/05 08:02:47;;;;;;;5.72;3.35;;;16.20;99.90;;;;;;1958182;72;21166;-81
2023/10/05 08:05:39;;;;;;;5.50;3.40;;;16.20;99.90;;;;;;1950704;73;21112;-82
2023/10/05 08:08:31;;;;;;;4.60;2.92;;;16.30;99.90;;;;;;1934948;74;21217;-82
2023/10/05 08:11:23;;;;;;;7.53;3.27;;;16.30;99.90;;;;;;1935119;74;21211;-82
2023/10/05 08:14:17;;;;;;;7.17;3.90;;;16.30;99.90;;;;;;1935140;74;21161;-82
2023/10/05 08:17:08;;;;;;;6.03;3.15;;;16.40;99.90;;;;;;1882105;76;21066;-82
2023/10/05 08:20:04;;;;;;;7.90;3.10;;;16.40;99.90;;;;;;1882192;76;21129;-82
2023/10/05 08:22:56;;;;;;;6.58;3.27;;;16.50;99.90;;;;;;1882405;76;21105;-82
2023/10/05 08:25:49;;;;;;;6.05;3.62;;;16.60;99.90;;;;;;1882534;76;21616;-81
2023/10/05 08:28:43;;;;;;;5.70;3.17;;;16.60;99.90;;;;;;1935408;74;21078;-81
2023/10/05 08:31:35;;;;;;;5.45;3.25;;;16.60;99.90;;;;;;1935327;74;21083;-81
2023/10/05 08:34:32;;;;;;;4.65;3.10;;;16.80;99.90;;;;;;1935409;74;21185;-81
2023/10/05 08:37:22;;;;;;;5.87;3.60;;;16.80;99.90;;;;;;1935567;74;21314;-83
2023/10/05 08:43:37;;;;;;;7.72;3.30;;;17.00;99.90;;;;;;1920377;74;21207;-82
2023/10/05 08:46:30;;;;;;;7.20;3.27;;;17.00;99.90;;;;;;1882641;76;21138;-82
2023/10/05 08:49:23;;;;;;;5.75;3.83;;;17.10;99.90;;;;;;1882163;76;21202;-82
2023/10/05 08:52:20;;;;;;;5.78;3.05;;;17.20;99.90;;;;;;1882331;76;21106;-81
2023/10/05 08:55:14;;;;;;;7.10;3.67;;;17.30;99.90;;;;;;1882550;76;21176;-81
2023/10/05 08:58:09;;;;;;;5.90;3.35;;;17.40;99.90;;;;;;1882437;76;22176;-82
2023/10/05 09:01:03;;;;;;;5.90;3.35;;;17.50;99.90;;;;;;1882889;76;21133;-82
2023/10/05 09:03:56;;;;;;;5.85;3.35;;;17.60;99.90;;;;;;1897482;75;21066;-82
2023/10/05 09:06:55;;;;;;;5.95;3.40;;;17.60;99.90;;;;;;1904833;75;21243;-82
2023/10/05 09:09:54;;;;;;;6.55;3.72;;;17.70;99.90;;;;;;1904980;75;21109;-81
2023/10/05 09:12:58;;;;;;;7.83;3.10;;;17.80;99.90;;;;;;1905123;75;21065;-83
2023/10/05 09:15:57;;;;;;;6.53;3.25;;;17.90;99.90;;;;;;1905105;75;21158;-82
2023/10/05 09:18:51;;;;;;;5.40;3.12;;;17.90;99.90;;;;;;1905230;75;21138;-82
2023/10/05 09:21:54;;;;;;;6.00;4.25;;;18.00;99.90;;;;;;1905307;75;21100;-82
2023/10/05 09:24:53;;;;;;;6.42;3.20;;;18.10;99.90;;;;;;1905259;75;21093;-82
2023/10/05 09:27:50;;;;;;;5.15;3.05;;;18.20;99.90;;;;;;1905288;75;21105;-81
2023/10/05 09:30:49;;;;;;;4.95;2.72;;;18.30;99.90;;;;;;1905448;75;21183;-81
2023/10/05 09:33:53;;;;;;;5.95;3.08;;;18.30;99.90;;;;;;1905632;75;21266;-80
2023/10/05 09:36:46;;;;;;;8.78;3.42;;;18.30;99.90;;;;;;1905067;75;21065;-82
2023/10/05 09:39:43;;;;;;;6.67;3.45;;;18.40;99.90;;;;;;1904966;75;21113;-82
2023/10/05 09:42:40;;;;;;;5.78;3.87;;;18.50;99.90;;;;;;1904864;75;21089;-82
2023/10/05 09:45:33;;;;;;;7.08;3.37;;;18.50;99.90;;;;;;1905067;75;21104;-82
2023/10/05 09:48:25;;;;;;;6.58;3.27;;;18.60;99.90;;;;;;1905025;75;21139;-82
2023/10/05 09:51:17;;;;;;;4.75;3.10;;;18.70;99.90;;;;;;1904919;75;21171;-82
2023/10/05 09:54:10;;;;;;;5.72;3.00;;;18.70;99.90;;;;;;1905265;75;21053;-81
2023/10/05 09:57:10;;;;;;;8.15;3.10;;;18.80;99.90;;;;;;1905322;75;21603;-82
2023/10/05 10:00:00;;;;;;;4.92;2.72;;;18.90;99.90;;;;;;1905018;75;21588;-81
2023/10/05 10:02:56;;;;;;;4.78;2.80;;;19.00;99.90;;;;;;1905193;75;21109;-81
2023/10/05 10:05:51;;;;;;;8.70;3.10;;;19.00;99.90;;;;;;1905117;75;21081;-81
2023/10/05 10:08:51;;;;;;;7.85;3.05;;;19.00;99.90;;;;;;1905175;75;21210;-82
2023/10/05 10:11:42;;;;;;;5.22;3.50;;;19.10;99.90;;;;;;1905060;75;21129;-81
2023/10/05 10:14:36;;;;;;;3.17;2.55;;;19.10;99.90;;;;;;1905071;75;21156;-82
2023/10/05 10:17:33;;;;;;;4.50;2.87;;;19.10;99.90;;;;;;1904987;75;21559;-82
2023/10/05 10:20:34;;;;;;;6.15;3.22;;;19.20;99.90;;;;;;1905046;75;21191;-82
2023/10/05 10:23:27;;;;;;;3.57;2.70;;;19.20;99.90;;;;;;1905366;75;21129;-82
2023/10/05 10:26:17;;;;;;;4.42;2.90;;;19.30;99.90;;;;;;1905093;75;21121;-82
2023/10/05 10:29:12;;;;;;;6.53;3.42;;;19.30;99.90;;;;;;1905176;75;21174;-83
2023/10/05 10:32:19;;;;;;;4.97;3.15;;;19.20;99.90;;;;;;1905278;75;21147;-81
2023/10/05 10:35:13;;;;;;;6.30;2.98;;;19.30;99.90;;;;;;1905041;75;21089;-82
2023/10/05 10:38:17;;;;;;;4.25;2.72;;;19.40;99.90;;;;;;1905158;75;21155;-83
2023/10/05 10:41:10;;;;;;;7.87;3.15;;;19.50;99.90;;;;;;1905160;75;21671;-81
2023/10/05 10:44:02;;;;;;;5.28;2.80;;;19.60;99.90;;;;;;1905222;75;21134;-83
2023/10/05 10:47:09;;;;;;;4.55;2.87;;;19.60;99.90;;;;;;1905029;75;21167;-82
2023/10/05 10:50:11;;;;;;;3.67;2.70;;;19.60;99.90;;;;;;1905381;75;21174;-82
2023/10/05 10:53:06;;;;;;;4.45;2.60;;;19.70;99.90;;;;;;1904973;75;21191;-82
2023/10/05 10:56:04;;;;;;;5.72;2.80;;;19.80;99.90;;;;;;1904989;75;21105;-82
2023/10/05 10:59:09;;;;;;;5.47;2.90;;;19.80;99.90;;;;;;1905042;75;21179;-81
2023/10/05 11:01:53;;;;;;;5.67;2.90;;;19.80;99.90;;;;;;1904955;75;21093;-82
2023/10/05 11:04:48;;;;;;;4.28;3.40;;;19.80;99.90;;;;;;1905172;75;21125;-82
2023/10/05 11:07:42;;;;;;;6.47;3.67;;;20.00;99.90;;;;;;1905121;75;21175;-82
2023/10/05 11:10:34;;;;;;;5.80;3.25;;;20.00;99.90;;;;;;1904828;75;21279;-82
2023/10/05 11:13:30;;;;;;;4.87;3.08;;;19.90;99.90;;;;;;1905189;75;21097;-82
2023/10/05 11:16:26;;;;;;;6.00;2.98;;;20.00;99.90;;;;;;1905233;75;21101;-82
2023/10/05 11:19:24;;;;;;;3.90;2.83;;;20.10;99.90;;;;;;1905074;75;21194;-81
2023/10/05 11:22:12;;;;;;;6.83;3.12;;;20.10;99.90;;;;;;1905173;75;21101;-81
2023/10/05 11:25:15;;;;;;;6.65;3.47;;;20.10;99.90;;;;;;1905089;75;21117;-83
2023/10/05 11:28:12;;;;;;;6.35;3.00;;;20.10;99.90;;;;;;1905330;75;21105;-82
2023/10/05 11:31:03;;;;;;;5.75;2.77;;;20.20;99.90;;;;;;1905140;75;21856;-82
2023/10/05 11:37:32;;;;;;;6.92;3.10;;;20.30;99.90;;;;;;1896696;75;21211;-81
2023/10/05 11:40:31;;;;;;;6.25;3.27;;;20.50;99.90;;;;;;1904974;75;21105;-82
2023/10/05 11:43:23;;;;;;;5.55;2.70;;;20.60;99.90;;;;;;1905283;75;21110;-82
2023/10/05 11:46:26;;;;;;;5.20;2.92;;;20.70;99.90;;;;;;1904965;75;21116;-81
2023/10/05 11:49:18;;;;;;;5.40;3.12;;;20.80;99.90;;;;;;1905005;75;21174;-81
2023/10/05 11:52:12;;;;;;;4.78;2.62;;;21.00;99.90;;;;;;1905170;75;21066;-82
2023/10/05 11:55:11;;;;;;;5.12;2.75;;;21.10;99.90;;;;;;1905048;75;21189;-81
2023/10/05 11:58:01;;;;;;;5.12;3.00;;;21.10;99.90;;;;;;1904884;75;21130;-81
2023/10/05 12:00:54;;;;;;;7.12;2.83;;;21.20;99.90;;;;;;1904717;75;21123;-82
2023/10/05 12:03:47;;;;;;;4.75;2.70;;;21.10;99.90;;;;;;1904736;75;21182;-81
2023/10/05 12:06:39;;;;;;;4.75;2.70;;;21.20;99.90;;;;;;1904841;75;21553;-81
2023/10/05 12:09:32;;;;;;;3.77;2.75;;;21.30;99.90;;;;;;1905262;75;21610;-82
2023/10/05 12:12:25;;;;;;;3.75;2.67;;;21.30;99.90;;;;;;1905024;75;21049;-82
2023/10/05 12:15:19;;;;;;;3.30;2.65;;;21.30;99.90;;;;;;1905203;75;21166;-81
2023/10/05 12:18:13;;;;;;;3.27;2.47;;;21.30;99.90;;;;;;1904729;75;21149;-81
2023/10/05 12:21:06;;;;;;;3.40;2.60;;;21.40;99.90;;;;;;1904810;75;21671;-81
2023/10/05 12:24:03;;;;;;;3.80;2.60;;;21.40;99.90;;;;;;1905076;75;21177;-81
2023/10/05 12:26:51;;;;;;;5.72;2.58;;;21.50;99.90;;;;;;1905143;75;21129;-81
2023/10/05 12:29:44;;;;;;;3.50;2.70;;;21.60;99.90;;;;;;1905373;75;21141;-81
2023/10/05 12:32:35;;;;;;;3.87;2.65;;;21.70;99.90;;;;;;1905375;75;21101;-82
2023/10/05 12:35:29;;;;;;;5.08;2.50;;;21.70;99.90;;;;;;1905077;75;21122;-82
2023/10/05 12:38:21;;;;;;;4.15;2.40;;;21.80;99.90;;;;;;1905127;75;21154;-82
2023/10/05 12:41:14;;;;;;;7.55;3.20;;;21.90;99.90;;;;;;1905082;75;21078;-82
2023/10/05 12:44:09;;;;;;;4.70;2.80;;;22.00;99.90;;;;;;1905077;75;21101;-81
2023/10/05 12:46:59;;;;;;;4.65;3.08;;;22.10;99.90;;;;;;1904911;75;21053;-81
2023/10/05 12:49:51;;;;;;;5.72;3.30;;;22.20;99.90;;;;;;1904951;75;21153;-81
2023/10/05 12:52:42;;;;;;;5.08;3.12;;;22.30;99.90;;;;;;1904845;75;21148;-81
2023/10/05 12:55:35;;;;;;;9.05;3.22;;;22.40;99.90;;;;;;1905059;75;21478;-81
2023/10/05 12:58:27;;;;;;;6.97;2.95;;;22.40;99.90;;;;;;1905176;75;21105;-82
2023/10/05 13:01:21;;;;;;;4.60;3.20;;;22.60;99.90;;;;;;1905056;75;21101;-82
2023/10/05 13:04:12;;;;;;;7.20;3.50;;;22.70;99.90;;;;;;1905297;75;21089;-81
2023/10/05 13:07:04;;;;;;;4.00;2.98;;;22.70;99.90;;;;;;1889132;75;21153;-82
2023/10/05 13:10:08;;;;;;;7.47;3.10;;;22.70;99.90;;;;;;1870962;77;21612;-81
2023/10/05 13:12:52;;;;;;;4.17;3.10;;;22.70;99.90;;;;;;1869503;76;21147;-85
2023/10/05 13:15:45;;;;;;;4.33;3.35;;;22.80;99.90;;;;;;1915300;75;21096;-85
2023/10/05 13:34:09;;;;;;;4.92;2.92;;;22.90;99.90;;;;;;1956386;72;22166;-86
2023/10/05 13:37:08;;;;;;;5.45;2.87;;;22.90;99.90;;;;;;1916488;75;21130;-85
2023/10/05 13:40:04;;;;;;;5.53;3.40;;;23.00;99.90;;;;;;1916861;75;21209;-86
2023/10/05 13:42:59;;;;;;;8.43;3.52;;;23.10;99.90;;;;;;1916713;75;21091;-85
2023/10/05 13:45:50;;;;;;;5.30;3.12;;;23.10;99.90;;;;;;1916844;75;21356;-85
2023/10/05 13:48:43;;;;;;;4.33;3.00;;;23.20;99.90;;;;;;1916820;75;21152;-85
2023/10/05 13:51:36;;;;;;;5.05;2.72;;;23.30;99.90;;;;;;1916955;75;21184;-85
2023/10/05 13:54:38;;;;;;;7.00;2.98;;;23.40;99.90;;;;;;1916681;75;21094;-86
2023/10/05 13:57:29;;;;;;;5.37;2.70;;;23.40;99.90;;;;;;1916788;75;21168;-85
2023/10/05 14:00:24;;;;;;;4.40;2.87;;;23.40;99.90;;;;;;1917020;75;21204;-85
2023/10/05 14:03:16;;;;;;;5.05;2.75;;;23.50;99.90;;;;;;1916467;75;21116;-85
2023/10/05 14:06:12;;;;;;;5.67;3.05;;;23.60;99.90;;;;;;1916615;75;21365;-85
2023/10/05 14:09:05;;;;;;;6.85;3.05;;;24.70;99.90;;;;;;1916409;75;21055;-85
2023/10/05 14:11:58;;;;;;;4.60;2.85;;;25.50;99.90;;;;;;1916498;75;21153;-85
2023/10/05 14:14:50;;;;;;;5.53;3.33;;;26.40;99.90;;;;;;1916624;75;21044;-85
2023/10/05 14:17:41;;;;;;;5.80;3.02;;;27.20;99.90;;;;;;1916334;75;21152;-85
2023/10/05 14:20:38;;;;;;;5.40;3.20;;;27.50;99.90;;;;;;1914835;75;21550;-85
2023/10/05 14:23:29;;;;;;;7.25;3.40;;;28.10;99.90;;;;;;1916333;75;21176;-86
2023/10/05 14:26:20;;;;;;;4.92;3.30;;;28.50;99.90;;;;;;1916697;75;21796;-85
2023/10/05 14:29:12;;;;;;;3.55;2.80;;;28.40;99.90;;;;;;1917046;75;21168;-85
2023/10/05 14:32:08;;;;;;;4.58;3.33;;;28.00;99.90;;;;;;1916748;75;21575;-86
2023/10/05 14:35:06;;;;;;;5.80;3.27;;;28.20;99.90;;;;;;1916992;75;21208;-84
2023/10/05 14:38:05;;;;;;;5.22;3.45;;;27.80;99.90;;;;;;1916672;75;21126;-85
2023/10/05 14:40:56;;;;;;;4.15;3.05;;;26.30;99.90;;;;;;1916690;75;21090;-85
2023/10/05 14:43:48;;;;;;;3.95;2.85;;;25.50;99.90;;;;;;1916541;75;21126;-85
2023/10/05 14:46:48;;;;;;;4.92;2.85;;;24.80;99.90;;;;;;1915879;75;21056;-85
2023/10/05 14:49:38;;;;;;;4.92;2.70;;;24.50;99.90;;;;;;1915930;75;21156;-85
2023/10/05 14:52:31;;;;;;;5.15;3.00;;;24.30;99.90;;;;;;1916247;75;21102;-85
2023/10/05 14:55:23;;;;;;;6.35;3.50;;;24.30;99.90;;;;;;1916219;75;21161;-84
2023/10/05 14:58:15;;;;;;;5.35;3.00;;;24.20;99.90;;;;;;1915930;75;21051;-84
2023/10/05 15:01:08;;;;;;;4.40;3.05;;;24.10;99.90;;;;;;1915942;75;21098;-86
2023/10/05 15:04:01;;;;;;;4.75;3.10;;;24.20;99.90;;;;;;1916242;75;21115;-85
2023/10/05 15:06:54;;;;;;;7.12;3.40;;;24.40;99.90;;;;;;1915849;75;21172;-84
2023/10/05 15:09:46;;;;;;;4.62;3.02;;;24.50;99.90;;;;;;1916120;75;21155;-85
2023/10/05 15:12:39;;;;;;;5.17;2.80;;;25.20;99.90;;;;;;1915639;75;21130;-85
2023/10/05 15:15:32;;;;;;;6.65;3.15;;;26.10;99.90;;;;;;1916086;75;21151;-85
2023/10/05 15:18:25;;;;;;;5.92;3.17;;;26.60;99.90;;;;;;1916170;75;21132;-83
2023/10/05 15:21:17;;;;;;;6.72;3.10;;;26.60;99.90;;;;;;1915682;75;21550;-84
2023/10/05 15:24:10;;;;;;;6.60;3.45;;;26.60;99.90;;;;;;1916019;75;21094;-86
2023/10/05 15:27:03;;;;;;;6.58;4.05;;;26.70;99.90;;;;;;1916316;75;21087;-84
2023/10/05 15:29:56;;;;;;;5.28;3.45;;;26.90;99.90;;;;;;1916231;75;21098;-83